createdAt,value
2023-05-06T00:01:54.551Z,60.07
2023-05-06T00:04:22.992Z,60.18
2023-05-06T00:06:51.725Z,60.43
2023-05-06T00:09:20.334Z,60.46
2023-05-06T00:11:48.661Z,60.46
2023-05-06T00:14:17.346Z,60.54
2023-05-06T00:16:46.311Z,60.51
2023-05-06T00:19:14.568Z,60.62
2023-05-06T00:21:42.776Z,60.81
2023-05-06T00:24:11.581Z,60.73
2023-05-06T00:26:40.013Z,60.69
2023-05-06T00:29:08.345Z,60.50
2023-05-06T00:31:36.726Z,60.94
2023-05-06T00:34:04.989Z,61.06
2023-05-06T00:36:33.377Z,61.00
2023-05-06T00:39:01.641Z,60.84
2023-05-06T00:41:34.351Z,60.81
2023-05-06T00:44:03.298Z,60.86
2023-05-06T00:46:31.654Z,61.05
2023-05-06T00:48:59.923Z,60.70
2023-05-06T00:51:28.682Z,60.99
2023-05-06T00:53:57.223Z,61.12
2023-05-06T00:56:25.583Z,60.99
2023-05-06T00:58:54.959Z,61.10
2023-05-06T01:01:24.047Z,60.95
2023-05-06T01:03:57.529Z,60.79
2023-05-06T01:06:46.252Z,60.82
2023-05-06T01:09:36.676Z,60.86
2023-05-06T01:12:29.539Z,60.89
2023-05-06T01:15:22.451Z,60.65
2023-05-06T01:17:53.804Z,60.77
2023-05-06T01:20:23.046Z,60.63
2023-05-06T01:22:53.065Z,60.60
2023-05-06T01:25:22.286Z,60.65
2023-05-06T01:27:50.932Z,60.70
2023-05-06T01:30:23.449Z,60.60
2023-05-06T01:33:00.885Z,60.58
2023-05-06T01:35:49.959Z,60.54
2023-05-06T01:38:37.001Z,60.44
2023-05-06T01:41:06.111Z,60.28
2023-05-06T01:43:40.413Z,60.23
2023-05-06T01:46:13.919Z,60.09
2023-05-06T01:48:43.474Z,60.12
2023-05-06T01:51:11.886Z,60.04
2023-05-06T01:53:40.154Z,59.92
2023-05-06T01:56:08.509Z,59.78
2023-05-06T01:58:37.561Z,59.81
2023-05-06T02:01:05.935Z,59.63
2023-05-06T02:03:34.404Z,59.54
2023-05-06T02:06:02.921Z,59.42
2023-05-06T02:08:31.224Z,59.34
2023-05-06T02:10:59.395Z,59.25
2023-05-06T02:13:27.626Z,59.15
2023-05-06T02:15:56.351Z,59.11
2023-05-06T02:18:25.599Z,59.10
2023-05-06T02:20:53.917Z,59.00
2023-05-06T02:23:22.136Z,58.83
2023-05-06T02:25:51.938Z,58.61
2023-05-06T02:28:20.196Z,58.71
2023-05-06T02:30:48.483Z,58.78
2023-05-06T02:33:16.786Z,58.49
2023-05-06T02:35:45.027Z,58.32
2023-05-06T02:38:13.394Z,58.35
2023-05-06T02:40:41.612Z,58.33
2023-05-06T02:43:09.927Z,58.53
2023-05-06T02:45:38.282Z,58.30
2023-05-06T02:48:06.843Z,58.19
2023-05-06T02:50:36.345Z,58.25
2023-05-06T02:53:04.713Z,58.11
2023-05-06T02:55:32.986Z,57.99
2023-05-06T02:58:01.161Z,57.89
2023-05-06T03:00:29.461Z,57.78
2023-05-06T03:02:57.787Z,57.76
2023-05-06T03:05:26.085Z,57.77
2023-05-06T03:07:54.376Z,57.76
2023-05-06T03:10:22.952Z,57.53
2023-05-06T03:12:51.281Z,57.48
2023-05-06T03:15:19.665Z,57.41
2023-05-06T03:17:48.064Z,57.34
2023-05-06T03:20:16.359Z,57.26
2023-05-06T03:22:44.775Z,57.19
2023-05-06T03:25:12.946Z,57.22
2023-05-06T03:27:41.217Z,56.82
2023-05-06T03:30:10.823Z,56.87
2023-05-06T03:32:39.263Z,56.59
2023-05-06T03:35:09.057Z,56.49
2023-05-06T03:37:37.352Z,56.40
2023-05-06T03:40:07.684Z,56.37
2023-05-06T03:42:36.063Z,56.00
2023-05-06T03:45:06.707Z,55.89
2023-05-06T03:47:35.053Z,55.95
2023-05-06T03:50:03.369Z,56.05
2023-05-06T03:52:31.839Z,55.65
2023-05-06T03:55:00.074Z,55.62
2023-05-06T03:57:28.309Z,55.44
2023-05-06T03:59:56.588Z,55.36
2023-05-06T04:02:25.097Z,55.50
2023-05-06T04:04:53.463Z,55.43
2023-05-06T04:07:21.731Z,55.23
2023-05-06T04:09:49.891Z,55.27
2023-05-06T04:12:24.547Z,55.23
2023-05-06T04:14:53.083Z,54.99
2023-05-06T04:17:21.302Z,55.11
2023-05-06T04:19:49.775Z,54.87
2023-05-06T04:22:17.981Z,54.88
2023-05-06T04:24:46.526Z,54.51
2023-05-06T04:27:15.437Z,54.46
2023-05-06T04:29:43.690Z,54.48
2023-05-06T04:32:12.018Z,54.40
2023-05-06T04:34:40.275Z,54.67
2023-05-06T04:37:08.464Z,54.44
2023-05-06T04:39:37.220Z,54.66
2023-05-06T04:42:05.633Z,54.89
2023-05-06T04:44:34.296Z,55.36
2023-05-06T04:47:02.490Z,55.92
2023-05-06T04:49:30.901Z,55.80
2023-05-06T04:51:59.083Z,55.92
2023-05-06T04:54:27.372Z,56.12
2023-05-06T04:56:55.970Z,55.98
2023-05-06T04:59:24.262Z,55.92
2023-05-06T05:01:53.066Z,55.12
2023-05-06T05:04:21.335Z,54.86
2023-05-06T05:06:49.539Z,54.98
2023-05-06T05:09:17.798Z,55.00
2023-05-06T05:11:46.180Z,54.81
2023-05-06T05:14:14.370Z,54.82
2023-05-06T05:16:42.726Z,54.79
2023-05-06T05:19:11.201Z,55.20
2023-05-06T05:21:39.404Z,55.29
2023-05-06T05:24:07.750Z,55.60
2023-05-06T05:26:36.084Z,56.08
2023-05-06T05:29:04.713Z,56.48
2023-05-06T05:31:33.103Z,56.77
2023-05-06T05:34:01.894Z,57.25
2023-05-06T05:36:30.170Z,57.37
2023-05-06T05:38:58.872Z,57.82
2023-05-06T05:41:27.191Z,57.52
2023-05-06T05:43:55.436Z,58.04
2023-05-06T05:46:24.181Z,57.75
2023-05-06T05:48:52.689Z,57.60
2023-05-06T05:51:20.952Z,57.85
2023-05-06T05:53:49.556Z,58.07
2023-05-06T05:56:18.082Z,58.40
2023-05-06T05:58:47.662Z,58.37
2023-05-06T06:01:15.983Z,58.47
2023-05-06T06:03:44.559Z,58.69
2023-05-06T06:06:13.148Z,59.02
2023-05-06T06:08:41.878Z,58.86
2023-05-06T06:11:11.193Z,58.38
2023-05-06T06:13:39.361Z,58.80
2023-05-06T06:16:07.914Z,58.88
2023-05-06T06:18:36.302Z,58.80
2023-05-06T06:21:04.689Z,58.64
2023-05-06T06:23:32.923Z,58.78
2023-05-06T06:26:03.571Z,58.84
2023-05-06T06:28:31.846Z,58.96
2023-05-06T06:31:00.111Z,59.15
2023-05-06T06:33:28.404Z,59.37
2023-05-06T06:35:57.474Z,59.18
2023-05-06T06:38:26.164Z,59.19
2023-05-06T06:40:54.744Z,59.52
2023-05-06T06:43:24.989Z,59.70
2023-05-06T06:45:53.449Z,59.79
2023-05-06T06:48:21.820Z,59.83
2023-05-06T06:50:50.751Z,59.92
2023-05-06T06:53:20.781Z,59.81
2023-05-06T06:55:49.276Z,60.20
2023-05-06T06:58:17.524Z,60.35
2023-05-06T07:00:46.117Z,60.10
2023-05-06T07:03:19.743Z,60.24
2023-05-06T07:05:49.676Z,60.57
2023-05-06T07:08:18.517Z,60.91
2023-05-06T07:10:46.889Z,60.90
2023-05-06T07:13:15.439Z,61.00
2023-05-06T07:15:43.618Z,61.29
2023-05-06T07:18:12.069Z,61.65
2023-05-06T07:20:40.407Z,61.89
2023-05-06T07:23:08.671Z,61.92
2023-05-06T07:25:36.965Z,61.83
2023-05-06T07:28:05.990Z,62.46
2023-05-06T07:30:34.608Z,62.17
2023-05-06T07:33:02.969Z,62.78
2023-05-06T07:36:38.618Z,62.86
2023-05-06T07:40:32.145Z,62.92
2023-05-06T07:43:00.771Z,63.79
2023-05-06T07:45:39.337Z,63.77
2023-05-06T07:48:15.805Z,64.16
2023-05-06T07:50:48.448Z,64.43
2023-05-06T07:56:03.454Z,64.78
2023-05-06T07:58:32.549Z,65.39
2023-05-06T08:01:03.804Z,65.63
2023-05-06T08:03:49.635Z,66.29
2023-05-06T08:07:42.030Z,66.52
2023-05-06T08:10:38.111Z,67.26
2023-05-06T08:13:06.602Z,67.48
2023-05-06T08:15:35.482Z,67.49
2023-05-06T08:18:13.723Z,68.35
2023-05-06T08:20:51.302Z,68.69
2023-05-06T08:23:20.478Z,69.24
2023-05-06T08:25:48.827Z,69.26
2023-05-06T08:28:17.205Z,69.24
2023-05-06T08:30:48.611Z,70.10
2023-05-06T08:33:18.159Z,69.84
2023-05-06T08:35:47.331Z,70.26
2023-05-06T08:38:15.680Z,70.82
2023-05-06T08:40:45.432Z,70.64
2023-05-06T08:43:28.169Z,71.25
2023-05-06T08:46:02.167Z,71.34
2023-05-06T08:53:04.091Z,72.23
2023-05-06T08:55:39.286Z,72.63
2023-05-06T08:58:28.917Z,72.55
2023-05-06T09:01:00.331Z,73.11
2023-05-06T09:03:29.883Z,73.46
2023-05-06T09:06:00.190Z,73.66
2023-05-06T09:08:28.519Z,74.09
2023-05-06T09:10:57.926Z,74.57
2023-05-06T09:13:26.400Z,74.92
2023-05-06T09:15:55.588Z,75.02
2023-05-06T09:18:24.039Z,75.09
2023-05-06T09:20:52.437Z,75.29
2023-05-06T09:23:22.985Z,75.45
2023-05-06T09:25:51.651Z,75.97
2023-05-06T09:28:21.316Z,75.55
2023-05-06T09:30:51.240Z,76.04
2023-05-06T09:33:19.490Z,75.91
2023-05-06T09:35:48.184Z,76.76
2023-05-06T09:38:16.629Z,76.75
2023-05-06T09:40:44.942Z,77.13
2023-05-06T09:43:13.389Z,77.22
2023-05-06T09:45:41.958Z,77.26
2023-05-06T09:48:10.547Z,77.81
2023-05-06T09:50:39.206Z,77.73
2023-05-06T09:53:08.346Z,78.32
2023-05-06T09:55:38.339Z,78.62
2023-05-06T09:58:07.856Z,78.82
2023-05-06T10:00:36.898Z,78.75
2023-05-06T10:03:06.141Z,79.28
2023-05-06T10:05:36.702Z,79.25
2023-05-06T10:08:05.794Z,79.43
2023-05-06T10:10:38.084Z,79.68
2023-05-06T10:13:06.509Z,79.71
2023-05-06T10:15:35.113Z,79.90
2023-05-06T10:18:07.587Z,80.39
2023-05-06T10:20:37.158Z,80.46
2023-05-06T10:23:18.208Z,80.43
2023-05-06T10:25:49.588Z,80.64
2023-05-06T10:28:30.852Z,80.64
2023-05-06T10:31:01.609Z,80.70
2023-05-06T10:33:30.329Z,80.78
2023-05-06T10:36:14.154Z,80.74
2023-05-06T10:38:49.650Z,81.03
2023-05-06T10:41:20.252Z,81.33
2023-05-06T10:43:55.980Z,81.70
2023-05-06T10:46:26.553Z,81.38
2023-05-06T10:49:04.810Z,81.82
2023-05-06T10:51:34.976Z,81.82
2023-05-06T10:54:03.156Z,81.91
2023-05-06T10:56:32.540Z,82.02
2023-05-06T10:59:09.616Z,81.85
2023-05-06T11:01:40.085Z,82.08
2023-05-06T11:04:19.592Z,81.83
2023-05-06T11:06:53.339Z,82.16
2023-05-06T11:09:27.857Z,81.98
2023-05-06T11:12:06.541Z,81.92
2023-05-06T11:14:39.080Z,81.74
2023-05-06T11:17:32.408Z,81.99
2023-05-06T11:20:47.718Z,82.18
2023-05-06T11:34:57.492Z,82.15
2023-05-06T11:37:29.850Z,82.07
2023-05-06T11:40:06.369Z,82.42
2023-05-06T11:42:34.977Z,82.40
2023-05-06T11:45:03.419Z,82.40
2023-05-06T11:47:31.756Z,82.29
2023-05-06T11:50:07.043Z,82.45
2023-05-06T11:52:35.842Z,82.39
2023-05-06T11:55:10.090Z,82.10
2023-05-06T11:57:44.905Z,82.20
2023-05-06T12:00:14.755Z,82.31
2023-05-06T12:02:43.198Z,81.91
2023-05-06T12:05:14.021Z,82.42
2023-05-06T12:07:44.881Z,82.38
2023-05-06T12:10:16.027Z,82.54
2023-05-06T12:12:44.521Z,82.11
2023-05-06T12:15:13.240Z,82.70
2023-05-06T12:17:41.590Z,83.11
2023-05-06T12:20:12.006Z,83.00
2023-05-06T12:22:40.761Z,83.26
2023-05-06T12:25:16.472Z,83.12
2023-05-06T12:27:45.788Z,82.99
2023-05-06T12:30:14.483Z,82.96
2023-05-06T12:32:59.710Z,83.07
2023-05-06T12:35:32.808Z,83.63
2023-05-06T12:38:16.599Z,83.29
2023-05-06T12:40:53.093Z,83.36
2023-05-06T12:43:30.504Z,83.47
2023-05-06T12:46:09.438Z,83.69
2023-05-06T12:48:38.549Z,83.30
2023-05-06T12:51:21.260Z,83.20
2023-05-06T12:53:49.702Z,83.17
2023-05-06T12:56:18.050Z,83.01
2023-05-06T12:58:58.380Z,83.25
2023-05-06T13:01:26.977Z,83.21
2023-05-06T13:04:09.642Z,83.53
2023-05-06T13:06:42.746Z,83.50
2023-05-06T13:09:12.218Z,83.30
2023-05-06T13:11:41.958Z,83.43
2023-05-06T13:14:11.232Z,82.92
2023-05-06T13:16:40.405Z,82.86
2023-05-06T13:19:21.112Z,82.95
2023-05-06T13:22:00.809Z,83.05
2023-05-06T13:24:30.185Z,83.43
2023-05-06T13:27:01.211Z,83.54
2023-05-06T13:29:30.008Z,83.19
2023-05-06T13:31:58.653Z,83.32
2023-05-06T13:34:27.412Z,83.28
2023-05-06T13:36:56.909Z,83.13
2023-05-06T13:39:25.738Z,82.94
2023-05-06T13:41:54.498Z,82.77
2023-05-06T13:44:23.057Z,82.72
2023-05-06T13:46:51.521Z,82.86
2023-05-06T13:49:20.275Z,83.14
2023-05-06T13:51:48.592Z,82.70
2023-05-06T13:54:17.021Z,82.89
2023-05-06T13:56:45.298Z,82.46
2023-05-06T13:59:14.275Z,82.54
2023-05-06T14:01:43.358Z,82.71
2023-05-06T14:04:12.778Z,82.35
2023-05-06T14:06:41.126Z,82.08
2023-05-06T14:09:12.460Z,82.37
2023-05-06T14:11:40.731Z,81.90
2023-05-06T14:14:09.058Z,82.32
2023-05-06T14:16:37.486Z,81.75
2023-05-06T14:19:07.628Z,81.34
2023-05-06T14:21:35.986Z,81.00
2023-05-06T14:24:06.890Z,80.96
2023-05-06T14:26:38.691Z,81.44
2023-05-06T14:29:06.997Z,80.75
2023-05-06T14:31:37.967Z,81.17
2023-05-06T14:36:45.468Z,80.28
2023-05-06T14:38:47.040Z,80.72
2023-05-06T14:41:16.887Z,80.03
2023-05-06T14:43:45.281Z,78.89
2023-05-06T14:46:14.802Z,79.44
2023-05-06T14:48:46.308Z,79.98
2023-05-06T14:53:09.654Z,79.81
2023-05-06T14:56:07.310Z,80.03
2023-05-06T14:58:35.775Z,80.49
2023-05-06T15:01:04.118Z,80.18
2023-05-06T15:03:32.776Z,79.86
2023-05-06T15:06:04.802Z,79.36
2023-05-06T15:08:33.246Z,79.39
2023-05-06T15:11:04.032Z,79.01
2023-05-06T15:13:32.826Z,79.06
2023-05-06T15:16:01.069Z,79.65
2023-05-06T15:18:29.721Z,79.34
2023-05-06T15:21:04.717Z,78.70
2023-05-06T15:23:33.032Z,78.75
2023-05-06T15:26:01.479Z,78.56
2023-05-06T15:28:29.847Z,78.52
2023-05-06T15:30:59.207Z,78.75
2023-05-06T15:33:49.751Z,78.70
2023-05-06T15:36:18.863Z,78.82
2023-05-06T15:38:53.850Z,78.86
2023-05-06T15:41:43.000Z,78.24
2023-05-06T15:44:39.641Z,77.85
2023-05-06T15:47:22.304Z,77.22
2023-05-06T15:50:10.905Z,77.60
2023-05-06T15:52:39.557Z,77.67
2023-05-06T15:55:08.575Z,77.53
2023-05-06T15:57:37.095Z,77.29
2023-05-06T16:00:06.016Z,77.41
2023-05-06T16:02:34.497Z,76.74
2023-05-06T16:05:04.317Z,76.49
2023-05-06T16:07:32.751Z,76.90
2023-05-06T16:10:01.186Z,76.39
2023-05-06T16:12:32.485Z,76.62
2023-05-06T16:15:00.961Z,76.92
2023-05-06T16:17:29.288Z,76.45
2023-05-06T16:19:57.700Z,76.97
2023-05-06T16:22:26.246Z,76.81
2023-05-06T16:24:57.754Z,76.61
2023-05-06T16:27:28.406Z,76.88
2023-05-06T16:29:57.044Z,77.14
2023-05-06T16:32:25.586Z,77.71
2023-05-06T16:34:53.865Z,77.37
2023-05-06T16:37:22.218Z,77.08
2023-05-06T16:39:50.864Z,77.26
2023-05-06T16:42:27.008Z,77.16
2023-05-06T16:48:38.957Z,76.34
2023-05-06T16:56:11.921Z,76.01
2023-05-06T16:58:40.924Z,75.74
2023-05-06T17:01:09.394Z,75.88
2023-05-06T17:03:38.802Z,75.61
2023-05-06T17:06:07.738Z,75.86
2023-05-06T17:08:38.291Z,76.02
2023-05-06T17:11:07.245Z,75.35
2023-05-06T17:13:35.680Z,75.37
2023-05-06T17:16:24.081Z,75.37
2023-05-06T17:18:52.518Z,75.17
2023-05-06T17:21:21.499Z,74.75
2023-05-06T17:23:51.565Z,74.77
2023-05-06T17:26:20.513Z,74.29
2023-05-06T17:42:21.000Z,74.13
2023-05-06T17:44:49.273Z,73.87
2023-05-06T17:47:17.739Z,73.97
2023-05-06T17:49:46.527Z,74.20
2023-05-06T17:52:15.070Z,73.95
2023-05-06T17:54:44.040Z,73.80
2023-05-06T17:57:12.466Z,73.80
2023-05-06T17:59:41.396Z,73.94
2023-05-06T18:02:14.026Z,73.97
2023-05-06T18:04:44.614Z,73.89
2023-05-06T18:07:16.717Z,73.65
2023-05-06T18:09:52.048Z,73.88
2023-05-06T18:12:20.545Z,73.79
2023-05-06T18:14:48.915Z,73.60
2023-05-06T18:17:17.273Z,73.82
2023-05-06T18:19:45.582Z,73.85
2023-05-06T18:22:14.074Z,73.63
2023-05-06T18:24:45.670Z,73.74
2023-05-06T18:27:14.369Z,73.84
2023-05-06T18:29:42.742Z,73.70
2023-05-06T18:36:03.886Z,73.68
2023-05-06T18:38:32.337Z,73.52
2023-05-06T18:41:07.113Z,73.52
2023-05-06T18:43:35.805Z,73.26
2023-05-06T18:46:05.651Z,73.24
2023-05-06T18:48:34.481Z,73.21
2023-05-06T18:51:17.366Z,73.18
2023-05-06T18:53:45.767Z,73.26
2023-05-06T18:56:14.493Z,73.36
2023-05-06T18:58:45.149Z,73.46
2023-05-06T19:01:13.509Z,73.45
2023-05-06T19:03:42.104Z,73.22
2023-05-06T19:06:10.897Z,73.85
2023-05-06T19:08:39.478Z,73.54
2023-05-06T19:11:15.496Z,73.49
2023-05-06T19:13:45.167Z,73.20
2023-05-06T19:16:14.033Z,73.55
2023-05-06T19:18:42.424Z,73.64
2023-05-06T19:21:18.360Z,73.68
2023-05-06T19:23:46.646Z,74.11
2023-05-06T19:26:15.102Z,73.93
2023-05-06T19:28:44.704Z,74.19
2023-05-06T19:31:13.080Z,74.02
2023-05-06T19:33:43.621Z,73.75
2023-05-06T19:36:12.131Z,74.16
2023-05-06T19:38:40.454Z,73.93
2023-05-06T19:41:09.423Z,74.04
2023-05-06T19:43:47.165Z,73.88
2023-05-06T19:46:17.402Z,74.17
2023-05-06T19:49:09.934Z,74.11
2023-05-06T19:51:38.554Z,74.11
2023-05-06T19:54:06.978Z,74.22
2023-05-06T19:56:35.771Z,74.26
2023-05-06T19:59:04.044Z,74.14
2023-05-06T20:01:32.424Z,74.18
2023-05-06T20:04:01.134Z,74.05
2023-05-06T20:06:31.417Z,73.98
2023-05-06T20:08:59.706Z,74.32
2023-05-06T20:11:28.184Z,74.27
2023-05-06T20:13:56.510Z,74.03
2023-05-06T20:16:24.856Z,74.52
2023-05-06T20:18:53.473Z,74.32
2023-05-06T20:21:24.458Z,74.21
2023-05-06T20:23:52.812Z,74.48
2023-05-06T20:26:25.062Z,74.51
2023-05-06T20:28:54.408Z,74.56
2023-05-06T20:31:22.942Z,74.42
2023-05-06T20:33:51.456Z,74.28
2023-05-06T20:36:20.105Z,74.38
2023-05-06T20:38:50.510Z,74.10
2023-05-06T20:41:19.881Z,74.42
2023-05-06T20:44:11.663Z,74.07
2023-05-06T20:46:42.974Z,74.54
2023-05-06T20:49:43.776Z,74.56
2023-05-06T20:52:14.835Z,74.78
2023-05-06T20:54:44.492Z,74.59
2023-05-06T20:57:14.653Z,74.61
2023-05-06T20:59:43.887Z,74.50
2023-05-06T21:02:12.461Z,74.93
2023-05-06T21:04:42.070Z,74.69
2023-05-06T21:07:12.887Z,74.59
2023-05-06T21:09:41.288Z,74.43
2023-05-06T21:12:09.709Z,74.42
2023-05-06T21:14:38.045Z,74.39
2023-05-06T21:17:06.410Z,74.53
2023-05-06T21:19:34.808Z,74.51
2023-05-06T21:22:03.229Z,74.68
2023-05-06T21:24:32.396Z,74.67
2023-05-06T21:27:00.681Z,74.70
2023-05-06T21:29:29.058Z,74.78
2023-05-06T21:31:58.127Z,74.68
2023-05-06T21:34:26.741Z,74.63
2023-05-06T21:36:55.015Z,74.78
2023-05-06T21:39:23.491Z,74.52
2023-05-06T21:41:51.785Z,74.69
2023-05-06T21:44:20.779Z,74.34
2023-05-06T21:46:49.737Z,74.34
2023-05-06T21:49:19.544Z,74.29
2023-05-06T21:51:48.144Z,73.91
2023-05-06T21:54:17.310Z,73.78
2023-05-06T21:56:48.080Z,73.94
2023-05-06T21:59:16.366Z,73.77
2023-05-06T22:01:44.799Z,73.67
2023-05-06T22:04:14.524Z,73.35
2023-05-06T22:06:43.041Z,73.57
2023-05-06T22:09:12.264Z,73.32
2023-05-06T22:11:40.616Z,73.23
2023-05-06T22:14:12.734Z,73.65
2023-05-06T22:20:13.831Z,72.84
2023-05-06T22:22:42.262Z,73.21
2023-05-06T22:25:11.776Z,73.00
2023-05-06T22:27:43.706Z,72.76
2023-05-06T22:30:13.618Z,72.78
2023-05-06T22:32:42.005Z,72.54
2023-05-06T22:35:10.534Z,72.39
2023-05-06T22:37:39.083Z,72.34
2023-05-06T22:40:08.120Z,72.70
2023-05-06T22:42:36.698Z,72.52
2023-05-06T22:45:06.271Z,72.51
2023-05-06T22:51:35.549Z,72.29
2023-05-06T22:54:27.004Z,72.02
2023-05-06T22:57:35.579Z,72.42
2023-05-06T23:00:05.802Z,72.30
2023-05-06T23:02:34.078Z,72.29
2023-05-06T23:05:02.408Z,72.33
2023-05-06T23:07:30.874Z,72.26
2023-05-06T23:10:00.002Z,72.23
2023-05-06T23:12:32.918Z,71.90
2023-05-06T23:15:01.526Z,71.97
2023-05-06T23:17:29.820Z,72.09
2023-05-06T23:19:59.351Z,72.08
2023-05-06T23:22:28.362Z,72.07
2023-05-06T23:24:56.595Z,72.06
2023-05-06T23:27:24.994Z,72.08
2023-05-06T23:29:53.344Z,72.06
2023-05-06T23:32:21.577Z,72.07
2023-05-06T23:34:49.885Z,71.72
2023-05-06T23:37:18.667Z,71.74
2023-05-06T23:39:48.587Z,71.64
2023-05-06T23:42:18.137Z,71.45
2023-05-06T23:44:48.514Z,71.92
2023-05-06T23:47:17.185Z,71.61
2023-05-06T23:49:45.456Z,71.63
2023-05-06T23:52:13.785Z,71.62
2023-05-06T23:54:42.146Z,71.48
2023-05-06T23:57:10.784Z,71.77
2023-05-06T23:59:39.055Z,71.72
